sensor_id;sensor_type;location;lat;lon;timestamp;P1;durP1;ratioP1;P2;durP2;ratioP2
12577;SDS011;6354;51.026;8.968;2022-09-04T00:01:52;3.60;;;3.30;;
12577;SDS011;6354;51.026;8.968;2022-09-04T00:04:28;3.80;;;3.50;;
12577;SDS011;6354;51.026;8.968;2022-09-04T00:07:04;4.73;;;4.07;;
12577;SDS011;6354;51.026;8.968;2022-09-04T00:09:41;5.15;;;3.50;;
12577;SDS011;6354;51.026;8.968;2022-09-04T00:12:20;5.53;;;4.23;;
12577;SDS011;6354;51.026;8.968;2022-09-04T00:14:53;4.10;;;3.40;;
12577;SDS011;6354;51.026;8.968;2022-09-04T00:17:29;4.40;;;4.00;;
12577;SDS011;6354;51.026;8.968;2022-09-04T00:20:06;3.73;;;3.30;;
12577;SDS011;6354;51.026;8.968;2022-09-04T00:22:40;3.47;;;3.17;;
12577;SDS011;6354;51.026;8.968;2022-09-04T00:25:18;3.37;;;3.07;;
12577;SDS011;6354;51.026;8.968;2022-09-04T00:27:52;3.33;;;3.03;;
12577;SDS011;6354;51.026;8.968;2022-09-04T00:30:26;6.47;;;4.80;;
12577;SDS011;6354;51.026;8.968;2022-09-04T00:32:57;5.53;;;4.47;;
12577;SDS011;6354;51.026;8.968;2022-09-04T00:35:34;6.53;;;4.30;;
12577;SDS011;6354;51.026;8.968;2022-09-04T00:38:07;6.67;;;5.20;;
12577;SDS011;6354;51.026;8.968;2022-09-04T00:40:40;4.73;;;4.10;;
12577;SDS011;6354;51.026;8.968;2022-09-04T00:43:17;5.67;;;3.40;;
12577;SDS011;6354;51.026;8.968;2022-09-04T00:46:19;5.33;;;3.23;;
12577;SDS011;6354;51.026;8.968;2022-09-04T00:51:59;3.40;;;2.97;;
12577;SDS011;6354;51.026;8.968;2022-09-04T00:54:39;3.83;;;2.53;;
12577;SDS011;6354;51.026;8.968;2022-09-04T00:57:24;2.70;;;2.50;;
12577;SDS011;6354;51.026;8.968;2022-09-04T01:00:10;3.73;;;2.80;;
12577;SDS011;6354;51.026;8.968;2022-09-04T01:06:02;3.23;;;2.70;;
12577;SDS011;6354;51.026;8.968;2022-09-04T01:08:49;4.40;;;3.03;;
12577;SDS011;6354;51.026;8.968;2022-09-04T01:11:40;4.10;;;2.77;;
12577;SDS011;6354;51.026;8.968;2022-09-04T01:14:13;2.90;;;2.70;;
12577;SDS011;6354;51.026;8.968;2022-09-04T01:16:46;3.77;;;3.30;;
12577;SDS011;6354;51.026;8.968;2022-09-04T01:19:30;2.80;;;2.60;;
12577;SDS011;6354;51.026;8.968;2022-09-04T01:22:15;3.30;;;2.90;;
12577;SDS011;6354;51.026;8.968;2022-09-04T01:25:14;2.97;;;2.77;;
12577;SDS011;6354;51.026;8.968;2022-09-04T01:27:59;2.97;;;2.77;;
12577;SDS011;6354;51.026;8.968;2022-09-04T01:30:32;3.77;;;3.07;;
12577;SDS011;6354;51.026;8.968;2022-09-04T01:33:21;3.87;;;2.83;;
12577;SDS011;6354;51.026;8.968;2022-09-04T01:35:58;3.77;;;2.80;;
12577;SDS011;6354;51.026;8.968;2022-09-04T01:38:32;3.13;;;2.60;;
12577;SDS011;6354;51.026;8.968;2022-09-04T01:41:08;3.33;;;3.03;;
12577;SDS011;6354;51.026;8.968;2022-09-04T01:43:43;3.03;;;2.80;;
12577;SDS011;6354;51.026;8.968;2022-09-04T01:46:20;4.33;;;3.20;;
12577;SDS011;6354;51.026;8.968;2022-09-04T01:48:59;3.30;;;3.00;;
12577;SDS011;6354;51.026;8.968;2022-09-04T01:51:35;2.90;;;2.70;;
12577;SDS011;6354;51.026;8.968;2022-09-04T01:54:19;3.63;;;2.77;;
12577;SDS011;6354;51.026;8.968;2022-09-04T01:57:07;3.30;;;3.00;;
12577;SDS011;6354;51.026;8.968;2022-09-04T01:59:47;3.13;;;2.80;;
12577;SDS011;6354;51.026;8.968;2022-09-04T02:02:26;4.07;;;3.03;;
12577;SDS011;6354;51.026;8.968;2022-09-04T02:05:00;3.20;;;2.90;;
12577;SDS011;6354;51.026;8.968;2022-09-04T02:07:37;3.50;;;3.10;;
12577;SDS011;6354;51.026;8.968;2022-09-04T02:10:12;3.70;;;3.13;;
12577;SDS011;6354;51.026;8.968;2022-09-04T02:12:51;3.20;;;2.90;;
12577;SDS011;6354;51.026;8.968;2022-09-04T02:15:32;3.40;;;3.00;;
12577;SDS011;6354;51.026;8.968;2022-09-04T02:18:11;2.80;;;2.60;;
12577;SDS011;6354;51.026;8.968;2022-09-04T02:20:47;3.23;;;2.93;;
12577;SDS011;6354;51.026;8.968;2022-09-04T02:23:23;3.23;;;3.00;;
12577;SDS011;6354;51.026;8.968;2022-09-04T02:26:02;3.37;;;3.07;;
12577;SDS011;6354;51.026;8.968;2022-09-04T02:28:39;3.67;;;3.30;;
12577;SDS011;6354;51.026;8.968;2022-09-04T02:31:17;3.30;;;2.93;;
12577;SDS011;6354;51.026;8.968;2022-09-04T02:33:56;3.57;;;3.27;;
12577;SDS011;6354;51.026;8.968;2022-09-04T02:36:32;3.43;;;3.13;;
12577;SDS011;6354;51.026;8.968;2022-09-04T02:39:08;3.50;;;3.20;;
12577;SDS011;6354;51.026;8.968;2022-09-04T02:41:45;3.30;;;3.00;;
12577;SDS011;6354;51.026;8.968;2022-09-04T02:44:26;3.70;;;3.40;;
12577;SDS011;6354;51.026;8.968;2022-09-04T02:47:08;4.93;;;3.17;;
12577;SDS011;6354;51.026;8.968;2022-09-04T02:49:47;3.40;;;3.10;;
12577;SDS011;6354;51.026;8.968;2022-09-04T02:52:27;3.60;;;3.30;;
12577;SDS011;6354;51.026;8.968;2022-09-04T02:55:17;4.50;;;3.20;;
12577;SDS011;6354;51.026;8.968;2022-09-04T02:57:57;3.87;;;3.50;;
12577;SDS011;6354;51.026;8.968;2022-09-04T03:00:37;3.80;;;3.33;;
12577;SDS011;6354;51.026;8.968;2022-09-04T03:03:12;4.07;;;3.33;;
12577;SDS011;6354;51.026;8.968;2022-09-04T03:05:46;4.93;;;3.10;;
12577;SDS011;6354;51.026;8.968;2022-09-04T03:08:19;5.33;;;2.77;;
12577;SDS011;6354;51.026;8.968;2022-09-04T03:10:52;3.57;;;3.30;;
12577;SDS011;6354;51.026;8.968;2022-09-04T03:13:25;3.97;;;3.10;;
12577;SDS011;6354;51.026;8.968;2022-09-04T03:15:59;4.10;;;3.30;;
12577;SDS011;6354;51.026;8.968;2022-09-04T03:18:36;3.10;;;2.90;;
12577;SDS011;6354;51.026;8.968;2022-09-04T03:21:19;3.77;;;3.07;;
12577;SDS011;6354;51.026;8.968;2022-09-04T03:23:54;3.40;;;3.10;;
12577;SDS011;6354;51.026;8.968;2022-09-04T03:26:27;4.77;;;3.33;;
12577;SDS011;6354;51.026;8.968;2022-09-04T03:29:01;4.20;;;3.30;;
12577;SDS011;6354;51.026;8.968;2022-09-04T03:31:36;3.63;;;3.27;;
12577;SDS011;6354;51.026;8.968;2022-09-04T03:34:21;4.63;;;3.33;;
12577;SDS011;6354;51.026;8.968;2022-09-04T03:37:14;3.50;;;3.20;;
12577;SDS011;6354;51.026;8.968;2022-09-04T03:39:53;3.60;;;3.30;;
12577;SDS011;6354;51.026;8.968;2022-09-04T03:42:34;3.17;;;2.97;;
12577;SDS011;6354;51.026;8.968;2022-09-04T03:45:19;3.43;;;3.13;;
12577;SDS011;6354;51.026;8.968;2022-09-04T03:47:59;3.37;;;3.07;;
12577;SDS011;6354;51.026;8.968;2022-09-04T03:50:46;4.50;;;3.60;;
12577;SDS011;6354;51.026;8.968;2022-09-04T03:53:24;3.67;;;3.07;;
12577;SDS011;6354;51.026;8.968;2022-09-04T03:56:07;3.30;;;3.00;;
12577;SDS011;6354;51.026;8.968;2022-09-04T03:59:01;3.43;;;3.13;;
12577;SDS011;6354;51.026;8.968;2022-09-04T04:01:35;3.57;;;3.27;;
12577;SDS011;6354;51.026;8.968;2022-09-04T04:04:25;3.70;;;3.10;;
12577;SDS011;6354;51.026;8.968;2022-09-04T04:07:10;5.13;;;3.70;;
12577;SDS011;6354;51.026;8.968;2022-09-04T04:09:51;3.70;;;3.40;;
12577;SDS011;6354;51.026;8.968;2022-09-04T04:12:34;3.73;;;3.43;;
12577;SDS011;6354;51.026;8.968;2022-09-04T04:15:12;3.90;;;3.47;;
12577;SDS011;6354;51.026;8.968;2022-09-04T04:17:54;3.17;;;2.87;;
12577;SDS011;6354;51.026;8.968;2022-09-04T04:20:34;5.33;;;3.57;;
12577;SDS011;6354;51.026;8.968;2022-09-04T04:23:15;3.70;;;3.30;;
12577;SDS011;6354;51.026;8.968;2022-09-04T04:26:06;3.87;;;3.50;;
12577;SDS011;6354;51.026;8.968;2022-09-04T04:28:43;4.10;;;3.70;;
12577;SDS011;6354;51.026;8.968;2022-09-04T04:31:29;3.37;;;3.00;;
12577;SDS011;6354;51.026;8.968;2022-09-04T04:34:12;3.03;;;2.83;;
12577;SDS011;6354;51.026;8.968;2022-09-04T04:36:49;3.40;;;3.10;;
12577;SDS011;6354;51.026;8.968;2022-09-04T04:39:25;3.60;;;3.30;;
12577;SDS011;6354;51.026;8.968;2022-09-04T04:42:05;4.80;;;4.30;;
12577;SDS011;6354;51.026;8.968;2022-09-04T04:44:52;3.93;;;3.50;;
12577;SDS011;6354;51.026;8.968;2022-09-04T04:48:00;4.83;;;2.93;;
12577;SDS011;6354;51.026;8.968;2022-09-04T04:50:45;3.33;;;3.03;;
12577;SDS011;6354;51.026;8.968;2022-09-04T04:53:22;4.00;;;3.70;;
12577;SDS011;6354;51.026;8.968;2022-09-04T04:55:59;3.60;;;3.30;;
12577;SDS011;6354;51.026;8.968;2022-09-04T04:58:38;3.60;;;3.30;;
12577;SDS011;6354;51.026;8.968;2022-09-04T05:01:21;4.00;;;3.20;;
12577;SDS011;6354;51.026;8.968;2022-09-04T05:03:59;3.90;;;3.50;;
12577;SDS011;6354;51.026;8.968;2022-09-04T05:06:38;3.27;;;3.03;;
12577;SDS011;6354;51.026;8.968;2022-09-04T05:09:13;4.23;;;3.37;;
12577;SDS011;6354;51.026;8.968;2022-09-04T05:11:55;3.33;;;2.93;;
12577;SDS011;6354;51.026;8.968;2022-09-04T05:14:30;3.53;;;3.23;;
12577;SDS011;6354;51.026;8.968;2022-09-04T05:17:08;3.53;;;3.23;;
12577;SDS011;6354;51.026;8.968;2022-09-04T05:19:46;4.60;;;3.50;;
12577;SDS011;6354;51.026;8.968;2022-09-04T05:22:21;3.90;;;3.50;;
12577;SDS011;6354;51.026;8.968;2022-09-04T05:25:02;3.13;;;2.83;;
12577;SDS011;6354;51.026;8.968;2022-09-04T05:27:42;4.27;;;3.53;;
12577;SDS011;6354;51.026;8.968;2022-09-04T05:30:19;3.40;;;3.13;;
12577;SDS011;6354;51.026;8.968;2022-09-04T05:32:55;4.70;;;3.47;;
12577;SDS011;6354;51.026;8.968;2022-09-04T05:35:31;3.53;;;3.10;;
12577;SDS011;6354;51.026;8.968;2022-09-04T05:38:10;3.40;;;3.00;;
12577;SDS011;6354;51.026;8.968;2022-09-04T05:40:48;8.67;;;3.77;;
12577;SDS011;6354;51.026;8.968;2022-09-04T05:43:39;8.13;;;4.30;;
12577;SDS011;6354;51.026;8.968;2022-09-04T05:46:17;6.60;;;4.17;;
12577;SDS011;6354;51.026;8.968;2022-09-04T05:48:57;8.23;;;3.73;;
12577;SDS011;6354;51.026;8.968;2022-09-04T05:51:41;5.00;;;3.40;;
12577;SDS011;6354;51.026;8.968;2022-09-04T05:54:31;6.80;;;3.50;;
12577;SDS011;6354;51.026;8.968;2022-09-04T05:57:28;4.10;;;3.70;;
12577;SDS011;6354;51.026;8.968;2022-09-04T06:00:08;4.57;;;3.77;;
12577;SDS011;6354;51.026;8.968;2022-09-04T06:05:38;4.60;;;3.93;;
12577;SDS011;6354;51.026;8.968;2022-09-04T06:08:14;4.37;;;3.97;;
12577;SDS011;6354;51.026;8.968;2022-09-04T06:11:01;4.60;;;4.20;;
12577;SDS011;6354;51.026;8.968;2022-09-04T06:13:59;4.90;;;4.50;;
12577;SDS011;6354;51.026;8.968;2022-09-04T06:16:49;4.53;;;4.13;;
12577;SDS011;6354;51.026;8.968;2022-09-04T06:19:34;4.50;;;3.53;;
12577;SDS011;6354;51.026;8.968;2022-09-04T06:22:18;3.60;;;3.30;;
12577;SDS011;6354;51.026;8.968;2022-09-04T06:28:25;5.20;;;3.10;;
12577;SDS011;6354;51.026;8.968;2022-09-04T06:31:22;4.53;;;3.70;;
12577;SDS011;6354;51.026;8.968;2022-09-04T06:34:07;4.28;;;3.88;;
12577;SDS011;6354;51.026;8.968;2022-09-04T06:36:50;4.80;;;4.30;;
12577;SDS011;6354;51.026;8.968;2022-09-04T06:39:36;8.48;;;5.03;;
12577;SDS011;6354;51.026;8.968;2022-09-04T06:42:25;5.32;;;4.55;;
12577;SDS011;6354;51.026;8.968;2022-09-04T06:45:10;7.40;;;5.50;;
12577;SDS011;6354;51.026;8.968;2022-09-04T06:47:56;9.13;;;6.60;;
12577;SDS011;6354;51.026;8.968;2022-09-04T06:50:32;11.10;;;9.07;;
12577;SDS011;6354;51.026;8.968;2022-09-04T06:53:15;8.15;;;7.15;;
12577;SDS011;6354;51.026;8.968;2022-09-04T06:55:51;10.82;;;8.00;;
12577;SDS011;6354;51.026;8.968;2022-09-04T06:58:40;12.20;;;9.07;;
12577;SDS011;6354;51.026;8.968;2022-09-04T07:01:27;13.35;;;9.73;;
12577;SDS011;6354;51.026;8.968;2022-09-04T07:04:10;15.30;;;11.40;;
12577;SDS011;6354;51.026;8.968;2022-09-04T07:06:50;14.68;;;10.90;;
12577;SDS011;6354;51.026;8.968;2022-09-04T07:09:25;16.23;;;10.88;;
12577;SDS011;6354;51.026;8.968;2022-09-04T07:12:09;14.02;;;10.73;;
12577;SDS011;6354;51.026;8.968;2022-09-04T07:15:06;16.27;;;11.40;;
12577;SDS011;6354;51.026;8.968;2022-09-04T07:17:59;18.08;;;13.57;;
12577;SDS011;6354;51.026;8.968;2022-09-04T07:20:36;16.98;;;12.32;;
12577;SDS011;6354;51.026;8.968;2022-09-04T07:23:23;21.10;;;14.43;;
12577;SDS011;6354;51.026;8.968;2022-09-04T07:26:03;21.90;;;14.95;;
12577;SDS011;6354;51.026;8.968;2022-09-04T07:28:50;32.45;;;18.00;;
12577;SDS011;6354;51.026;8.968;2022-09-04T07:31:30;32.17;;;18.45;;
12577;SDS011;6354;51.026;8.968;2022-09-04T07:34:06;34.47;;;21.05;;
12577;SDS011;6354;51.026;8.968;2022-09-04T07:36:41;49.38;;;26.83;;
12577;SDS011;6354;51.026;8.968;2022-09-04T07:39:18;53.95;;;28.15;;
12577;SDS011;6354;51.026;8.968;2022-09-04T07:41:54;57.20;;;29.73;;
12577;SDS011;6354;51.026;8.968;2022-09-04T07:44:28;52.33;;;27.23;;
12577;SDS011;6354;51.026;8.968;2022-09-04T07:47:05;47.15;;;25.90;;
12577;SDS011;6354;51.026;8.968;2022-09-04T07:49:42;45.83;;;25.95;;
12577;SDS011;6354;51.026;8.968;2022-09-04T07:52:29;41.88;;;22.88;;
12577;SDS011;6354;51.026;8.968;2022-09-04T07:55:13;43.50;;;23.98;;
12577;SDS011;6354;51.026;8.968;2022-09-04T07:57:52;49.97;;;27.13;;
12577;SDS011;6354;51.026;8.968;2022-09-04T08:00:49;43.15;;;23.90;;
12577;SDS011;6354;51.026;8.968;2022-09-04T08:03:32;40.90;;;24.25;;
12577;SDS011;6354;51.026;8.968;2022-09-04T08:06:20;54.58;;;26.58;;
12577;SDS011;6354;51.026;8.968;2022-09-04T08:09:00;47.28;;;26.63;;
12577;SDS011;6354;51.026;8.968;2022-09-04T08:11:41;44.85;;;25.13;;
12577;SDS011;6354;51.026;8.968;2022-09-04T08:17:32;41.60;;;23.30;;
12577;SDS011;6354;51.026;8.968;2022-09-04T08:20:14;42.20;;;24.27;;
12577;SDS011;6354;51.026;8.968;2022-09-04T08:22:51;48.70;;;25.00;;
12577;SDS011;6354;51.026;8.968;2022-09-04T08:25:39;44.72;;;22.92;;
12577;SDS011;6354;51.026;8.968;2022-09-04T08:28:22;37.30;;;21.75;;
12577;SDS011;6354;51.026;8.968;2022-09-04T08:31:01;36.30;;;21.17;;
12577;SDS011;6354;51.026;8.968;2022-09-04T08:36:29;34.13;;;20.27;;
12577;SDS011;6354;51.026;8.968;2022-09-04T08:39:05;33.33;;;19.65;;
12577;SDS011;6354;51.026;8.968;2022-09-04T08:41:44;32.13;;;19.02;;
12577;SDS011;6354;51.026;8.968;2022-09-04T08:44:41;31.98;;;19.35;;
12577;SDS011;6354;51.026;8.968;2022-09-04T08:50:38;26.70;;;16.98;;
12577;SDS011;6354;51.026;8.968;2022-09-04T08:56:40;28.17;;;17.55;;
12577;SDS011;6354;51.026;8.968;2022-09-04T09:05:41;20.88;;;13.63;;
12577;SDS011;6354;51.026;8.968;2022-09-04T09:08:44;13.93;;;10.90;;
12577;SDS011;6354;51.026;8.968;2022-09-04T09:18:30;23.75;;;14.43;;
12577;SDS011;6354;51.026;8.968;2022-09-04T09:21:08;18.92;;;13.77;;
12577;SDS011;6354;51.026;8.968;2022-09-04T09:23:43;16.83;;;11.35;;
12577;SDS011;6354;51.026;8.968;2022-09-04T09:26:24;12.25;;;9.73;;
12577;SDS011;6354;51.026;8.968;2022-09-04T09:32:07;14.02;;;10.75;;
12577;SDS011;6354;51.026;8.968;2022-09-04T09:35:06;12.93;;;10.05;;
12577;SDS011;6354;51.026;8.968;2022-09-04T09:38:05;12.45;;;9.48;;
12577;SDS011;6354;51.026;8.968;2022-09-04T09:41:17;11.38;;;8.88;;
12577;SDS011;6354;51.026;8.968;2022-09-04T09:50:07;10.88;;;9.02;;
12577;SDS011;6354;51.026;8.968;2022-09-04T09:53:07;9.55;;;7.97;;
12577;SDS011;6354;51.026;8.968;2022-09-04T09:56:25;12.23;;;8.60;;
12577;SDS011;6354;51.026;8.968;2022-09-04T09:59:30;11.65;;;8.95;;
12577;SDS011;6354;51.026;8.968;2022-09-04T10:02:25;10.35;;;7.38;;
12577;SDS011;6354;51.026;8.968;2022-09-04T10:08:23;9.27;;;8.13;;
12577;SDS011;6354;51.026;8.968;2022-09-04T10:11:16;10.38;;;7.13;;
12577;SDS011;6354;51.026;8.968;2022-09-04T10:14:16;8.68;;;6.88;;
12577;SDS011;6354;51.026;8.968;2022-09-04T10:17:19;7.97;;;6.97;;
12577;SDS011;6354;51.026;8.968;2022-09-04T10:20:30;9.45;;;6.95;;
12577;SDS011;6354;51.026;8.968;2022-09-04T10:23:21;8.75;;;6.30;;
12577;SDS011;6354;51.026;8.968;2022-09-04T10:26:17;6.07;;;5.43;;
12577;SDS011;6354;51.026;8.968;2022-09-04T10:29:16;7.57;;;6.05;;
12577;SDS011;6354;51.026;8.968;2022-09-04T10:31:58;5.70;;;4.90;;
12577;SDS011;6354;51.026;8.968;2022-09-04T10:34:37;6.68;;;5.70;;
12577;SDS011;6354;51.026;8.968;2022-09-04T10:37:27;6.22;;;5.47;;
12577;SDS011;6354;51.026;8.968;2022-09-04T10:40:11;10.38;;;7.15;;
12577;SDS011;6354;51.026;8.968;2022-09-04T10:43:13;7.70;;;6.22;;
12577;SDS011;6354;51.026;8.968;2022-09-04T10:46:05;9.45;;;6.78;;
12577;SDS011;6354;51.026;8.968;2022-09-04T10:48:58;7.40;;;5.30;;
12577;SDS011;6354;51.026;8.968;2022-09-04T10:51:50;8.60;;;5.90;;
12577;SDS011;6354;51.026;8.968;2022-09-04T10:58:01;4.30;;;3.65;;
12577;SDS011;6354;51.026;8.968;2022-09-04T11:00:46;3.72;;;3.40;;
12577;SDS011;6354;51.026;8.968;2022-09-04T11:03:36;3.47;;;3.17;;
12577;SDS011;6354;51.026;8.968;2022-09-04T11:09:36;6.65;;;4.35;;
12577;SDS011;6354;51.026;8.968;2022-09-04T11:15:33;5.18;;;4.53;;
12577;SDS011;6354;51.026;8.968;2022-09-04T11:21:46;4.85;;;4.10;;
12577;SDS011;6354;51.026;8.968;2022-09-04T11:24:50;6.30;;;4.47;;
12577;SDS011;6354;51.026;8.968;2022-09-04T11:27:56;5.00;;;4.30;;
12577;SDS011;6354;51.026;8.968;2022-09-04T11:30:53;6.38;;;4.22;;
12577;SDS011;6354;51.026;8.968;2022-09-04T11:43:28;5.45;;;4.95;;
12577;SDS011;6354;51.026;8.968;2022-09-04T11:46:21;6.05;;;4.50;;
12577;SDS011;6354;51.026;8.968;2022-09-04T11:52:23;5.60;;;4.95;;
12577;SDS011;6354;51.026;8.968;2022-09-04T11:55:04;5.53;;;4.88;;
12577;SDS011;6354;51.026;8.968;2022-09-04T11:58:14;6.05;;;4.80;;
12577;SDS011;6354;51.026;8.968;2022-09-04T12:01:09;5.18;;;4.55;;
12577;SDS011;6354;51.026;8.968;2022-09-04T12:03:59;5.40;;;4.90;;
12577;SDS011;6354;51.026;8.968;2022-09-04T12:06:59;6.15;;;4.72;;
12577;SDS011;6354;51.026;8.968;2022-09-04T12:09:44;5.93;;;4.82;;
12577;SDS011;6354;51.026;8.968;2022-09-04T12:12:36;5.40;;;4.90;;
12577;SDS011;6354;51.026;8.968;2022-09-04T12:15:50;4.82;;;4.40;;
12577;SDS011;6354;51.026;8.968;2022-09-04T12:18:43;6.03;;;4.38;;
12577;SDS011;6354;51.026;8.968;2022-09-04T12:21:52;5.43;;;4.18;;
12577;SDS011;6354;51.026;8.968;2022-09-04T12:24:50;6.35;;;4.38;;
12577;SDS011;6354;51.026;8.968;2022-09-04T12:31:06;6.90;;;4.63;;
12577;SDS011;6354;51.026;8.968;2022-09-04T12:34:12;5.40;;;4.20;;
12577;SDS011;6354;51.026;8.968;2022-09-04T12:40:09;4.88;;;3.95;;
12577;SDS011;6354;51.026;8.968;2022-09-04T12:42:56;5.20;;;4.22;;
12577;SDS011;6354;51.026;8.968;2022-09-04T12:45:36;5.25;;;4.32;;
12577;SDS011;6354;51.026;8.968;2022-09-04T12:48:13;5.50;;;4.40;;
12577;SDS011;6354;51.026;8.968;2022-09-04T12:50:50;5.35;;;4.35;;
12577;SDS011;6354;51.026;8.968;2022-09-04T12:53:35;5.72;;;4.78;;
12577;SDS011;6354;51.026;8.968;2022-09-04T12:56:26;4.57;;;3.78;;
12577;SDS011;6354;51.026;8.968;2022-09-04T12:59:11;5.25;;;3.97;;
12577;SDS011;6354;51.026;8.968;2022-09-04T13:01:54;4.38;;;3.85;;
12577;SDS011;6354;51.026;8.968;2022-09-04T13:04:32;4.25;;;3.55;;
12577;SDS011;6354;51.026;8.968;2022-09-04T13:07:19;4.03;;;3.63;;
12577;SDS011;6354;51.026;8.968;2022-09-04T13:10:02;6.47;;;3.95;;
12577;SDS011;6354;51.026;8.968;2022-09-04T13:12:46;4.78;;;3.40;;
12577;SDS011;6354;51.026;8.968;2022-09-04T13:15:26;4.78;;;3.80;;
12577;SDS011;6354;51.026;8.968;2022-09-04T13:18:04;4.20;;;3.35;;
12577;SDS011;6354;51.026;8.968;2022-09-04T13:20:42;3.92;;;3.53;;
12577;SDS011;6354;51.026;8.968;2022-09-04T13:23:27;3.78;;;3.28;;
12577;SDS011;6354;51.026;8.968;2022-09-04T13:26:21;3.58;;;3.28;;
12577;SDS011;6354;51.026;8.968;2022-09-04T13:29:01;4.60;;;3.22;;
12577;SDS011;6354;51.026;8.968;2022-09-04T13:31:55;5.07;;;3.42;;
12577;SDS011;6354;51.026;8.968;2022-09-04T13:34:33;4.10;;;3.58;;
12577;SDS011;6354;51.026;8.968;2022-09-04T13:37:16;3.88;;;3.22;;
12577;SDS011;6354;51.026;8.968;2022-09-04T13:42:54;4.03;;;3.53;;
12577;SDS011;6354;51.026;8.968;2022-09-04T13:45:44;3.67;;;3.38;;
12577;SDS011;6354;51.026;8.968;2022-09-04T13:48:28;3.72;;;3.35;;
12577;SDS011;6354;51.026;8.968;2022-09-04T13:51:04;4.38;;;3.40;;
12577;SDS011;6354;51.026;8.968;2022-09-04T13:53:43;4.30;;;3.40;;
12577;SDS011;6354;51.026;8.968;2022-09-04T13:56:21;4.10;;;3.70;;
12577;SDS011;6354;51.026;8.968;2022-09-04T13:58:55;3.55;;;3.25;;
12577;SDS011;6354;51.026;8.968;2022-09-04T14:01:28;4.95;;;3.47;;
12577;SDS011;6354;51.026;8.968;2022-09-04T14:04:03;4.72;;;3.33;;
12577;SDS011;6354;51.026;8.968;2022-09-04T14:06:34;4.25;;;3.70;;
12577;SDS011;6354;51.026;8.968;2022-09-04T14:09:03;4.55;;;3.67;;
12577;SDS011;6354;51.026;8.968;2022-09-04T14:11:36;4.28;;;3.40;;
12577;SDS011;6354;51.026;8.968;2022-09-04T14:14:29;4.60;;;3.20;;
12577;SDS011;6354;51.026;8.968;2022-09-04T14:17:15;4.93;;;3.40;;
12577;SDS011;6354;51.026;8.968;2022-09-04T14:19:53;7.10;;;3.75;;
12577;SDS011;6354;51.026;8.968;2022-09-04T14:22:35;5.57;;;3.60;;
12577;SDS011;6354;51.026;8.968;2022-09-04T14:25:14;5.07;;;3.70;;
12577;SDS011;6354;51.026;8.968;2022-09-04T14:27:51;4.93;;;3.45;;
12577;SDS011;6354;51.026;8.968;2022-09-04T14:30:30;4.07;;;3.08;;
12577;SDS011;6354;51.026;8.968;2022-09-04T14:33:07;3.42;;;3.13;;
12577;SDS011;6354;51.026;8.968;2022-09-04T14:35:49;3.85;;;3.00;;
12577;SDS011;6354;51.026;8.968;2022-09-04T14:38:32;4.60;;;3.33;;
12577;SDS011;6354;51.026;8.968;2022-09-04T14:41:23;3.35;;;2.90;;
12577;SDS011;6354;51.026;8.968;2022-09-04T14:44:04;3.15;;;2.92;;
12577;SDS011;6354;51.026;8.968;2022-09-04T14:46:42;3.63;;;3.08;;
12577;SDS011;6354;51.026;8.968;2022-09-04T14:49:22;3.95;;;3.15;;
12577;SDS011;6354;51.026;8.968;2022-09-04T14:51:58;4.57;;;3.00;;
12577;SDS011;6354;51.026;8.968;2022-09-04T14:54:30;4.47;;;2.95;;
12577;SDS011;6354;51.026;8.968;2022-09-04T14:57:09;4.20;;;2.97;;
12577;SDS011;6354;51.026;8.968;2022-09-04T14:59:44;3.53;;;3.00;;
12577;SDS011;6354;51.026;8.968;2022-09-04T15:02:21;7.53;;;4.45;;
12577;SDS011;6354;51.026;8.968;2022-09-04T15:04:57;5.78;;;5.20;;
12577;SDS011;6354;51.026;8.968;2022-09-04T15:07:46;3.63;;;3.33;;
12577;SDS011;6354;51.026;8.968;2022-09-04T15:10:18;4.82;;;3.03;;
12577;SDS011;6354;51.026;8.968;2022-09-04T15:12:52;3.97;;;3.67;;
12577;SDS011;6354;51.026;8.968;2022-09-04T15:15:27;3.45;;;3.00;;
12577;SDS011;6354;51.026;8.968;2022-09-04T15:18:01;4.15;;;3.03;;
12577;SDS011;6354;51.026;8.968;2022-09-04T15:20:37;2.83;;;2.60;;
12577;SDS011;6354;51.026;8.968;2022-09-04T15:23:15;3.10;;;2.80;;
12577;SDS011;6354;51.026;8.968;2022-09-04T15:25:48;3.03;;;2.80;;
12577;SDS011;6354;51.026;8.968;2022-09-04T15:28:26;3.40;;;3.05;;
12577;SDS011;6354;51.026;8.968;2022-09-04T15:31:02;3.72;;;2.85;;
12577;SDS011;6354;51.026;8.968;2022-09-04T15:33:41;3.50;;;3.10;;
12577;SDS011;6354;51.026;8.968;2022-09-04T15:36:15;3.40;;;3.10;;
12577;SDS011;6354;51.026;8.968;2022-09-04T15:38:47;11.50;;;8.65;;
12577;SDS011;6354;51.026;8.968;2022-09-04T15:41:22;6.75;;;5.30;;
12577;SDS011;6354;51.026;8.968;2022-09-04T15:44:06;3.70;;;2.90;;
12577;SDS011;6354;51.026;8.968;2022-09-04T15:46:41;3.05;;;2.75;;
12577;SDS011;6354;51.026;8.968;2022-09-04T15:49:15;3.35;;;2.83;;
12577;SDS011;6354;51.026;8.968;2022-09-04T15:51:51;5.22;;;2.70;;
12577;SDS011;6354;51.026;8.968;2022-09-04T15:54:28;6.63;;;4.57;;
12577;SDS011;6354;51.026;8.968;2022-09-04T15:57:17;5.47;;;3.25;;
12577;SDS011;6354;51.026;8.968;2022-09-04T15:59:48;6.45;;;5.93;;
12577;SDS011;6354;51.026;8.968;2022-09-04T16:02:27;5.70;;;5.10;;
12577;SDS011;6354;51.026;8.968;2022-09-04T16:05:03;5.63;;;4.75;;
12577;SDS011;6354;51.026;8.968;2022-09-04T16:07:42;8.73;;;7.57;;
12577;SDS011;6354;51.026;8.968;2022-09-04T16:10:21;11.55;;;9.95;;
12577;SDS011;6354;51.026;8.968;2022-09-04T16:12:55;9.13;;;7.45;;
12577;SDS011;6354;51.026;8.968;2022-09-04T16:15:27;7.97;;;6.40;;
12577;SDS011;6354;51.026;8.968;2022-09-04T16:17:59;7.63;;;5.05;;
12577;SDS011;6354;51.026;8.968;2022-09-04T16:20:36;8.90;;;4.20;;
12577;SDS011;6354;51.026;8.968;2022-09-04T16:23:13;5.72;;;3.15;;
12577;SDS011;6354;51.026;8.968;2022-09-04T16:25:44;4.35;;;2.97;;
12577;SDS011;6354;51.026;8.968;2022-09-04T16:28:21;3.30;;;3.00;;
12577;SDS011;6354;51.026;8.968;2022-09-04T16:30:54;3.97;;;3.15;;
12577;SDS011;6354;51.026;8.968;2022-09-04T16:33:26;4.35;;;2.55;;
12577;SDS011;6354;51.026;8.968;2022-09-04T16:36:00;3.28;;;2.97;;
12577;SDS011;6354;51.026;8.968;2022-09-04T16:38:33;3.15;;;2.40;;
12577;SDS011;6354;51.026;8.968;2022-09-04T16:41:14;3.65;;;3.15;;
12577;SDS011;6354;51.026;8.968;2022-09-04T16:44:04;3.20;;;2.85;;
12577;SDS011;6354;51.026;8.968;2022-09-04T16:46:39;8.20;;;2.70;;
12577;SDS011;6354;51.026;8.968;2022-09-04T16:49:29;6.00;;;3.10;;
12577;SDS011;6354;51.026;8.968;2022-09-04T16:52:18;4.50;;;2.92;;
12577;SDS011;6354;51.026;8.968;2022-09-04T16:55:02;5.38;;;3.58;;
12577;SDS011;6354;51.026;8.968;2022-09-04T16:57:36;3.30;;;3.00;;
12577;SDS011;6354;51.026;8.968;2022-09-04T17:00:09;5.22;;;3.38;;
12577;SDS011;6354;51.026;8.968;2022-09-04T17:02:41;4.25;;;3.85;;
12577;SDS011;6354;51.026;8.968;2022-09-04T17:05:16;3.95;;;3.20;;
12577;SDS011;6354;51.026;8.968;2022-09-04T17:07:54;3.83;;;3.03;;
12577;SDS011;6354;51.026;8.968;2022-09-04T17:10:34;3.60;;;3.30;;
12577;SDS011;6354;51.026;8.968;2022-09-04T17:13:09;3.65;;;3.35;;
12577;SDS011;6354;51.026;8.968;2022-09-04T17:15:47;3.05;;;2.85;;
12577;SDS011;6354;51.026;8.968;2022-09-04T17:18:21;3.75;;;2.97;;
12577;SDS011;6354;51.026;8.968;2022-09-04T17:20:52;4.25;;;3.03;;
12577;SDS011;6354;51.026;8.968;2022-09-04T17:23:47;3.42;;;2.97;;
12577;SDS011;6354;51.026;8.968;2022-09-04T17:26:42;4.88;;;3.00;;
12577;SDS011;6354;51.026;8.968;2022-09-04T17:29:33;3.30;;;3.00;;
12577;SDS011;6354;51.026;8.968;2022-09-04T17:32:13;3.42;;;3.13;;
12577;SDS011;6354;51.026;8.968;2022-09-04T17:35:11;5.15;;;3.88;;
12577;SDS011;6354;51.026;8.968;2022-09-04T17:38:09;4.10;;;3.30;;
12577;SDS011;6354;51.026;8.968;2022-09-04T17:41:05;4.50;;;3.35;;
12577;SDS011;6354;51.026;8.968;2022-09-04T17:44:07;3.85;;;3.40;;
12577;SDS011;6354;51.026;8.968;2022-09-04T17:46:48;4.05;;;3.03;;
12577;SDS011;6354;51.026;8.968;2022-09-04T17:49:29;3.95;;;3.40;;
12577;SDS011;6354;51.026;8.968;2022-09-04T17:52:01;3.38;;;3.00;;
12577;SDS011;6354;51.026;8.968;2022-09-04T17:54:37;4.68;;;3.08;;
12577;SDS011;6354;51.026;8.968;2022-09-04T17:57:17;4.32;;;2.63;;